Eira — OJJP — position and weather

sailwx.info

Track history (hours):
 
Tides and Currents Weather Stations Pressure Air Temp Water Temp Dewpoint Dewpoint Depression Visibility Wind Speed Wind Dir Waves Ship Positions

Eira

Last reported at 2016-Sep-27 19:30 UTC. Time now 2016-Sep-28 01:45 UTC.
Position N 60°09' E 026°29'.

Length 157 m; draft 9.3 m.

Type: Cargo ship. MMSI: 230935000.

Date/timePositionNaut miles runAvg speedWind from/ knotsBaromVisibWave heightAir tempDewpointWater temp
2016-Sep-27 19:30N 60°09' E 026°29'0 0.0
2016-Sep-27 14:30N 60°09' E 026°29'0 0.0
2016-Sep-27 13:33N 60°09' E 026°29'0 0.0
2016-Sep-27 10:33N 60°08' E 026°29'1 0.1
2016-Sep-27 00:31N 60°09' E 026°31'0 0.0
2016-Sep-26 20:31N 60°09' E 026°31'0 0.0
2016-Sep-26 19:31N 60°09' E 026°31'0 0.0
2016-Sep-26 15:31N 60°09' E 026°31'0 0.0
2016-Sep-26 13:31N 60°09' E 026°31'0 0.0
2016-Sep-26 11:31N 60°09' E 026°31'0 0.0
2016-Sep-26 08:31N 60°09' E 026°31'0 0.0
2016-Sep-26 02:31N 60°09' E 026°31'0 0.0
2016-Sep-26 01:31N 60°09' E 026°31'0 0.0
2016-Sep-26 00:31N 60°09' E 026°31'0 0.0
2016-Sep-25 21:31N 60°09' E 026°31'0 0.0
2016-Sep-25 17:28N 60°09' E 026°31'0 0.0
2016-Sep-25 16:31N 60°09' E 026°31'0 0.0
2016-Sep-25 15:31N 60°09' E 026°31'0 0.0
2016-Sep-25 14:31N 60°09' E 026°31'0 0.0
2016-Sep-25 12:31N 60°09' E 026°31'0 0.0
2016-Sep-25 11:31N 60°09' E 026°31'0 0.0
2016-Sep-25 10:31N 60°09' E 026°31'0 0.0
2016-Sep-25 09:31N 60°09' E 026°31'0 0.0
2016-Sep-25 07:31N 60°09' E 026°31'4 1.5
2016-Sep-25 04:34N 60°06' E 026°37'35 8.8
2016-Sep-25 00:33N 60°12' E 027°47'20 9.9
2016-Sep-24 22:33N 60°05' E 028°25'10 9.9
2016-Sep-24 21:33N 60°03' E 028°44'3010.0
2016-Sep-24 18:33N 59°59' E 029°44'1110.6
2016-Sep-24 17:33N 59°55' E 030°03'5 4.6
2016-Sep-24 16:33N 59°53' E 030°11'0 0.0
2016-Sep-24 14:32N 59°53' E 030°11'0 0.0
2016-Sep-24 12:32N 59°53' E 030°11'0 0.0
2016-Sep-24 10:32N 59°53' E 030°11'0 0.0
2016-Sep-24 09:32N 59°53' E 030°11'0 0.0
2016-Sep-24 03:32N 59°53' E 030°11'0 0.0
2016-Sep-24 02:32N 59°53' E 030°11'0 0.0
2016-Sep-24 01:32N 59°53' E 030°11'0 0.0
2016-Sep-24 00:32N 59°53' E 030°11'0 0.0
2016-Sep-23 19:32N 59°53' E 030°11'0 0.0
2016-Sep-23 17:32N 59°53' E 030°11'0 0.0
2016-Sep-23 16:32N 59°53' E 030°11'0 0.0
2016-Sep-23 15:33N 59°53' E 030°11'14 7.0
2016-Sep-23 13:33N 59°59' E 029°46'4812.0
2016-Sep-23 09:33N 60°08' E 028°12'3311.1
2016-Sep-23 06:33N 59°59' E 027°07'2412.0
2016-Sep-23 04:33N 59°56' E 026°20'4112.2
2016-Sep-23 01:10N 59°47' E 024°59'712.1
2016-Sep-23 00:33N 59°46' E 024°45'1212.3
2016-Sep-22 23:32N 59°44' E 024°21'3712.3
2016-Sep-22 20:29N 59°37' E 023°08'  
2016-Sep-19 14:15N 59°32' E 021°26'710.5
2016-Sep-19 13:33N 59°32' E 021°41'1110.9
2016-Sep-19 12:31N 59°33' E 022°03'3311.1
2016-Sep-19 09:33N 59°39' E 023°07'2311.3
2016-Sep-19 07:33N 59°44' E 023°51'1111.5
2016-Sep-19 06:33N 59°46' E 024°13'3911.5
2016-Sep-19 03:10N 59°53' E 025°29'711.2
2016-Sep-19 02:33N 59°55' E 025°42'2311.4
2016-Sep-19 00:30N 60°00' E 026°28'5310.8
2016-Sep-18 19:33N 60°08' E 028°14'28 6.9
2016-Sep-18 15:31N 59°41' E 028°25'0 0.0
2016-Sep-18 14:22N 59°41' E 028°25'0 0.0
2016-Sep-18 10:28N 59°41' E 028°25'0 0.0
2016-Sep-18 09:28N 59°41' E 028°25'0 0.0
2016-Sep-18 02:31N 59°41' E 028°25'0 0.0
2016-Sep-18 01:31N 59°41' E 028°25'0 0.0
2016-Sep-18 00:22N 59°41' E 028°25'0 0.0
2016-Sep-17 22:25N 59°41' E 028°25'0 0.4
2016-Sep-17 21:33N 59°41' E 028°25'3 2.6
2016-Sep-17 20:33N 59°42' E 028°20'  
Track history (hours):
 
Tides and Currents Weather Stations Pressure Air Temp Water Temp Dewpoint Dewpoint Depression Visibility Wind Speed Wind Dir Waves Ship Positions

Eira

Last reported at 2016-Sep-27 19:30 UTC. Time now 2016-Sep-28 01:45 UTC.
Position N 60°09' E 026°29'.

Length 157 m; draft 9.3 m.

Type: Cargo ship. MMSI: 230935000.

Date/timePositionNaut miles runAvg speedWind from/ knotsBaromVisibWave heightAir tempDewpointWater temp
2016-Sep-27 19:30N 60°09' E 026°29'0 0.0
2016-Sep-27 14:30N 60°09' E 026°29'0 0.0
2016-Sep-27 13:33N 60°09' E 026°29'0 0.0
2016-Sep-27 10:33N 60°08' E 026°29'1 0.1
2016-Sep-27 00:31N 60°09' E 026°31'0 0.0
2016-Sep-26 20:31N 60°09' E 026°31'0 0.0
2016-Sep-26 19:31N 60°09' E 026°31'0 0.0
2016-Sep-26 15:31N 60°09' E 026°31'0 0.0
2016-Sep-26 13:31N 60°09' E 026°31'0 0.0
2016-Sep-26 11:31N 60°09' E 026°31'0 0.0
2016-Sep-26 08:31N 60°09' E 026°31'0 0.0
2016-Sep-26 02:31N 60°09' E 026°31'0 0.0
2016-Sep-26 01:31N 60°09' E 026°31'0 0.0
2016-Sep-26 00:31N 60°09' E 026°31'0 0.0
2016-Sep-25 21:31N 60°09' E 026°31'0 0.0
2016-Sep-25 17:28N 60°09' E 026°31'0 0.0
2016-Sep-25 16:31N 60°09' E 026°31'0 0.0
2016-Sep-25 15:31N 60°09' E 026°31'0 0.0
2016-Sep-25 14:31N 60°09' E 026°31'0 0.0
2016-Sep-25 12:31N 60°09' E 026°31'0 0.0
2016-Sep-25 11:31N 60°09' E 026°31'0 0.0
2016-Sep-25 10:31N 60°09' E 026°31'0 0.0
2016-Sep-25 09:31N 60°09' E 026°31'0 0.0
2016-Sep-25 07:31N 60°09' E 026°31'4 1.5
2016-Sep-25 04:34N 60°06' E 026°37'35 8.8
2016-Sep-25 00:33N 60°12' E 027°47'20 9.9
2016-Sep-24 22:33N 60°05' E 028°25'10 9.9
2016-Sep-24 21:33N 60°03' E 028°44'3010.0
2016-Sep-24 18:33N 59°59' E 029°44'1110.6
2016-Sep-24 17:33N 59°55' E 030°03'5 4.6
2016-Sep-24 16:33N 59°53' E 030°11'0 0.0
2016-Sep-24 14:32N 59°53' E 030°11'0 0.0
2016-Sep-24 12:32N 59°53' E 030°11'0 0.0
2016-Sep-24 10:32N 59°53' E 030°11'0 0.0
2016-Sep-24 09:32N 59°53' E 030°11'0 0.0
2016-Sep-24 03:32N 59°53' E 030°11'0 0.0
2016-Sep-24 02:32N 59°53' E 030°11'0 0.0
2016-Sep-24 01:32N 59°53' E 030°11'0 0.0
2016-Sep-24 00:32N 59°53' E 030°11'0 0.0
2016-Sep-23 19:32N 59°53' E 030°11'0 0.0
2016-Sep-23 17:32N 59°53' E 030°11'0 0.0
2016-Sep-23 16:32N 59°53' E 030°11'0 0.0
2016-Sep-23 15:33N 59°53' E 030°11'14 7.0
2016-Sep-23 13:33N 59°59' E 029°46'4812.0
2016-Sep-23 09:33N 60°08' E 028°12'3311.1
2016-Sep-23 06:33N 59°59' E 027°07'2412.0
2016-Sep-23 04:33N 59°56' E 026°20'4112.2
2016-Sep-23 01:10N 59°47' E 024°59'712.1
2016-Sep-23 00:33N 59°46' E 024°45'1212.3
2016-Sep-22 23:32N 59°44' E 024°21'3712.3
2016-Sep-22 20:29N 59°37' E 023°08'  
2016-Sep-19 14:15N 59°32' E 021°26'710.5
2016-Sep-19 13:33N 59°32' E 021°41'1110.9
2016-Sep-19 12:31N 59°33' E 022°03'3311.1
2016-Sep-19 09:33N 59°39' E 023°07'2311.3
2016-Sep-19 07:33N 59°44' E 023°51'1111.5
2016-Sep-19 06:33N 59°46' E 024°13'3911.5
2016-Sep-19 03:10N 59°53' E 025°29'711.2
2016-Sep-19 02:33N 59°55' E 025°42'2311.4
2016-Sep-19 00:30N 60°00' E 026°28'5310.8
2016-Sep-18 19:33N 60°08' E 028°14'28 6.9
2016-Sep-18 15:31N 59°41' E 028°25'0 0.0
2016-Sep-18 14:22N 59°41' E 028°25'0 0.0
2016-Sep-18 10:28N 59°41' E 028°25'0 0.0
2016-Sep-18 09:28N 59°41' E 028°25'0 0.0
2016-Sep-18 02:31N 59°41' E 028°25'0 0.0
2016-Sep-18 01:31N 59°41' E 028°25'0 0.0
2016-Sep-18 00:22N 59°41' E 028°25'0 0.0
2016-Sep-17 22:25N 59°41' E 028°25'0 0.4
2016-Sep-17 21:33N 59°41' E 028°25'3 2.6
2016-Sep-17 20:33N 59°42' E 028°20'  

Dump ship's entire track history